Time;durP1;ratioP1;P1;durP2;ratioP2;P2;SDS_P1;SDS_P2;PMS_P1;PMS_P2;Temp;Humidity;BMP_temperature;BMP_pressure;BME280_temperature;BME280_humidity;BME280_pressure;Samples;Min_cycle;Max_cycle;Signal;HPM_P1;HPM_P2
2023/07/20 00:01:45;;;;;;;45.80;43.35;;;21.70;99.20;;;;;;5013545;28;20037;-76
2023/07/20 00:04:12;;;;;;;24.10;22.60;;;21.60;99.20;;;;;;5014866;28;20034;-76
2023/07/20 00:06:40;;;;;;;25.45;23.65;;;21.60;99.20;;;;;;5014484;28;20521;-76
2023/07/20 00:09:07;;;;;;;26.65;24.83;;;21.60;99.30;;;;;;5014100;28;20038;-76
2023/07/20 00:11:38;;;;;;;25.40;23.60;;;21.60;99.30;;;;;;5014339;28;20621;-75
2023/07/20 00:14:05;;;;;;;23.30;21.77;;;21.50;99.30;;;;;;5013206;28;20038;-76
2023/07/20 00:16:31;;;;;;;22.98;21.35;;;21.50;99.40;;;;;;4995735;28;20034;-76
2023/07/20 00:18:57;;;;;;;26.40;24.77;;;21.50;99.50;;;;;;5014446;28;20026;-76
2023/07/20 00:21:23;;;;;;;26.85;25.00;;;21.50;99.50;;;;;;5013000;28;20053;-76
2023/07/20 00:23:49;;;;;;;44.40;41.58;;;21.40;99.60;;;;;;5013158;28;20037;-76
2023/07/20 00:26:16;;;;;;;53.05;49.97;;;21.40;99.60;;;;;;5013921;28;20034;-76
2023/07/20 00:28:43;;;;;;;48.05;45.22;;;21.30;99.70;;;;;;5014730;28;20038;-76
2023/07/20 00:31:09;;;;;;;45.65;42.85;;;21.40;99.90;;;;;;5012905;28;20053;-76
2023/07/20 00:33:35;;;;;;;43.85;41.45;;;21.30;99.70;;;;;;5014310;28;20092;-76
2023/07/20 00:36:02;;;;;;;43.15;40.60;;;21.30;99.70;;;;;;5013655;28;20037;-76
2023/07/20 00:38:28;;;;;;;41.63;39.22;;;21.30;99.80;;;;;;5014468;28;20361;-76
2023/07/20 00:40:54;;;;;;;34.17;32.22;;;21.20;99.90;;;;;;5013676;28;20038;-76
2023/07/20 00:43:20;;;;;;;32.60;30.70;;;21.20;99.90;;;;;;5014049;28;20056;-76
2023/07/20 00:45:46;;;;;;;34.88;32.85;;;21.20;99.90;;;;;;5013184;28;20510;-76
2023/07/20 00:48:12;;;;;;;37.65;35.42;;;21.10;99.90;;;;;;5012622;28;20033;-76
2023/07/20 00:50:38;;;;;;;36.70;34.20;;;21.10;99.90;;;;;;5013529;28;20041;-76
2023/07/20 00:53:07;;;;;;;35.63;33.60;;;21.10;99.90;;;;;;4995989;28;20065;-76
2023/07/20 00:55:33;;;;;;;32.92;30.98;;;21.00;99.90;;;;;;5013574;28;20018;-75
2023/07/20 00:57:59;;;;;;;35.03;32.85;;;21.00;99.90;;;;;;5012740;28;20034;-76
2023/07/20 01:00:26;;;;;;;32.42;30.42;;;21.00;99.90;;;;;;5011392;28;20030;-76
2023/07/20 01:02:52;;;;;;;32.42;30.45;;;20.90;99.90;;;;;;5013740;28;20030;-74
2023/07/20 01:05:18;;;;;;;29.50;27.35;;;20.90;99.90;;;;;;5013175;28;20041;-76
2023/07/20 01:07:59;;;;;;;37.05;34.85;;;20.90;99.90;;;;;;5013467;28;20034;-76
2023/07/20 01:10:37;;;;;;;32.90;30.88;;;20.90;99.90;;;;;;5011753;28;20605;-76
2023/07/20 01:13:03;;;;;;;36.58;34.22;;;20.80;99.90;;;;;;5013445;28;20461;-76
2023/07/20 01:15:29;;;;;;;34.45;32.35;;;20.90;99.90;;;;;;5011179;28;20061;-75
2023/07/20 01:17:55;;;;;;;31.58;29.75;;;20.90;99.90;;;;;;5013390;28;20034;-75
2023/07/20 01:20:22;;;;;;;25.02;23.55;;;20.90;99.90;;;;;;5010865;28;20050;-75
2023/07/20 01:22:52;;;;;;;22.13;20.40;;;20.70;99.90;;;;;;5012095;28;20467;-76
2023/07/20 01:25:37;;;;;;;28.52;26.95;;;20.60;99.90;;;;;;5011728;28;20030;-76
2023/07/20 01:28:31;;;;;;;24.90;23.35;;;20.60;99.90;;;;;;5013215;28;20507;-76
2023/07/20 01:31:25;;;;;;;22.05;20.48;;;20.50;99.90;;;;;;5012340;28;20038;-75
2023/07/20 01:33:54;;;;;;;24.05;22.15;;;20.50;99.90;;;;;;5012894;28;20398;-76
2023/07/20 01:36:20;;;;;;;21.02;19.60;;;20.40;99.90;;;;;;5011448;28;20034;-76
2023/07/20 01:38:46;;;;;;;26.17;24.40;;;20.30;99.90;;;;;;5011955;28;20030;-75
2023/07/20 01:41:12;;;;;;;25.08;23.42;;;20.30;99.90;;;;;;5011359;28;20030;-76
2023/07/20 01:43:38;;;;;;;23.85;22.17;;;20.20;99.90;;;;;;5011551;28;20041;-75
2023/07/20 01:46:04;;;;;;;25.88;23.98;;;20.20;99.90;;;;;;5011149;28;20038;-76
2023/07/20 01:48:31;;;;;;;27.52;25.52;;;20.00;99.90;;;;;;5012839;28;20054;-75
2023/07/20 01:50:57;;;;;;;28.98;26.98;;;19.80;99.90;;;;;;5011060;28;20057;-75
2023/07/20 01:53:23;;;;;;;31.85;29.60;;;19.80;99.90;;;;;;5012848;28;20026;-75
2023/07/20 01:55:49;;;;;;;29.75;27.85;;;19.90;99.90;;;;;;5012390;28;20368;-75
2023/07/20 01:58:15;;;;;;;24.13;22.50;;;19.70;99.90;;;;;;5012305;28;20041;-75
2023/07/20 02:00:41;;;;;;;29.08;27.27;;;19.70;99.90;;;;;;5009889;28;20407;-75
2023/07/20 02:03:07;;;;;;;26.10;24.30;;;19.60;99.90;;;;;;5006617;28;20034;-76
2023/07/20 02:05:33;;;;;;;28.63;26.60;;;19.70;99.90;;;;;;5008794;28;20396;-74
2023/07/20 02:08:00;;;;;;;31.02;29.10;;;19.70;99.90;;;;;;5010934;28;20030;-75
2023/07/20 02:10:26;;;;;;;27.25;25.35;;;19.70;99.90;;;;;;5011165;28;20395;-76
2023/07/20 02:12:52;;;;;;;27.98;25.98;;;19.70;99.90;;;;;;5010500;28;20038;-75
2023/07/20 02:15:19;;;;;;;23.58;22.08;;;19.40;99.90;;;;;;5010217;28;20056;-75
2023/07/20 02:17:45;;;;;;;41.05;38.63;;;19.40;99.90;;;;;;5011209;28;20046;-75
2023/07/20 02:20:11;;;;;;;29.05;26.95;;;19.50;99.90;;;;;;5010596;28;20029;-76
2023/07/20 02:22:37;;;;;;;29.48;27.77;;;19.60;99.90;;;;;;5011340;28;20042;-75
2023/07/20 02:25:07;;;;;;;32.55;30.55;;;19.60;99.90;;;;;;5009445;28;20041;-75
2023/07/20 02:27:34;;;;;;;33.30;31.25;;;19.40;99.90;;;;;;5009161;28;20069;-73
2023/07/20 02:30:00;;;;;;;26.77;24.92;;;19.40;99.90;;;;;;5010714;28;20029;-75
2023/07/20 02:32:28;;;;;;;29.08;26.98;;;19.20;99.90;;;;;;5013151;28;20391;-75
2023/07/20 02:34:54;;;;;;;27.15;25.35;;;19.30;99.90;;;;;;5014562;28;20030;-74
2023/07/20 02:37:20;;;;;;;35.28;32.90;;;19.30;99.90;;;;;;5015428;28;20494;-75
2023/07/20 02:39:46;;;;;;;35.72;33.42;;;19.40;99.90;;;;;;5015357;28;20029;-75
2023/07/20 02:42:13;;;;;;;32.72;30.77;;;19.30;99.90;;;;;;5014490;28;20030;-76
2023/07/20 02:44:39;;;;;;;34.40;32.35;;;19.20;99.90;;;;;;5016398;28;20034;-75
2023/07/20 02:47:05;;;;;;;41.53;38.83;;;19.30;99.90;;;;;;5015391;28;20042;-76
2023/07/20 02:49:31;;;;;;;30.88;28.75;;;19.30;99.90;;;;;;5015975;28;20060;-75
2023/07/20 02:51:57;;;;;;;39.05;36.55;;;19.30;99.90;;;;;;5014481;28;20041;-75
2023/07/20 02:54:23;;;;;;;42.72;40.15;;;19.20;99.90;;;;;;5015759;28;20026;-75
2023/07/20 02:56:49;;;;;;;45.60;43.22;;;19.10;99.90;;;;;;5015260;28;20037;-76
2023/07/20 02:59:15;;;;;;;46.90;43.80;;;19.10;99.90;;;;;;5015821;28;20021;-75
2023/07/20 03:01:42;;;;;;;43.35;40.45;;;19.10;99.90;;;;;;5015046;28;20049;-75
2023/07/20 03:04:10;;;;;;;52.95;49.58;;;19.20;99.90;;;;;;5016352;28;20038;-75
2023/07/20 03:06:36;;;;;;;46.17;43.42;;;19.20;99.90;;;;;;5015587;28;20050;-75
2023/07/20 03:09:03;;;;;;;48.53;45.35;;;19.10;99.90;;;;;;5015679;28;20041;-75
2023/07/20 03:11:29;;;;;;;50.42;47.42;;;19.10;99.90;;;;;;5014557;28;20522;-76
2023/07/20 03:13:55;;;;;;;84.93;80.43;;;19.20;99.90;;;;;;5014412;28;20029;-75
2023/07/20 03:16:23;;;;;;;36.30;34.10;;;19.20;99.90;;;;;;5014797;28;20045;-75
2023/07/20 03:18:49;;;;;;;49.60;46.78;;;19.30;99.90;;;;;;5015507;28;20037;-75
2023/07/20 03:21:15;;;;;;;34.38;31.95;;;19.40;99.90;;;;;;5015040;28;20038;-75
2023/07/20 03:23:41;;;;;;;44.22;41.78;;;19.40;99.90;;;;;;5015318;28;20029;-75
2023/07/20 03:26:11;;;;;;;36.80;34.42;;;19.50;99.90;;;;;;5014729;28;20471;-76
2023/07/20 03:28:37;;;;;;;41.97;39.53;;;19.40;99.90;;;;;;5013754;28;20038;-75
2023/07/20 03:31:04;;;;;;;38.53;35.95;;;19.30;99.90;;;;;;5014703;28;20403;-75
2023/07/20 03:33:30;;;;;;;42.72;39.97;;;19.10;99.90;;;;;;5015288;28;20029;-75
2023/07/20 03:35:57;;;;;;;40.90;38.35;;;19.00;99.90;;;;;;5014839;28;20037;-75
2023/07/20 03:38:23;;;;;;;45.75;43.13;;;19.10;99.90;;;;;;5015051;28;20029;-75
2023/07/20 03:40:52;;;;;;;39.97;37.47;;;19.20;99.90;;;;;;5014571;28;20487;-75
2023/07/20 03:43:18;;;;;;;35.63;33.13;;;19.20;99.90;;;;;;5014595;28;20383;-75
2023/07/20 03:45:48;;;;;;;41.20;38.30;;;19.20;99.90;;;;;;5014354;28;20064;-74
2023/07/20 03:48:16;;;;;;;39.78;37.17;;;19.20;99.90;;;;;;5014926;28;20018;-74
2023/07/20 03:50:45;;;;;;;42.85;40.35;;;19.10;99.90;;;;;;5014621;28;20056;-75
2023/07/20 03:53:11;;;;;;;40.00;37.53;;;19.10;99.90;;;;;;5014965;28;20033;-75
2023/07/20 03:55:37;;;;;;;38.47;36.13;;;19.00;99.90;;;;;;5014577;28;20032;-75
2023/07/20 03:58:03;;;;;;;42.72;40.03;;;19.00;99.90;;;;;;5014852;28;20034;-75
2023/07/20 04:00:30;;;;;;;40.88;38.25;;;19.00;99.90;;;;;;5014187;28;20026;-75
2023/07/20 04:02:56;;;;;;;47.03;44.10;;;19.00;99.90;;;;;;5014828;28;20037;-74
2023/07/20 04:05:22;;;;;;;38.95;36.40;;;18.90;99.90;;;;;;5013487;28;20034;-75
2023/07/20 04:07:48;;;;;;;45.88;43.03;;;18.80;99.90;;;;;;5013803;28;20029;-75
2023/07/20 04:10:14;;;;;;;43.22;40.67;;;18.70;99.90;;;;;;5014263;28;20056;-74
2023/07/20 04:12:40;;;;;;;40.40;37.85;;;18.90;99.90;;;;;;5014594;28;20519;-75
2023/07/20 04:15:07;;;;;;;36.03;33.72;;;18.90;99.90;;;;;;5014062;28;20037;-75
2023/07/20 04:17:33;;;;;;;26.90;25.02;;;18.70;99.90;;;;;;5014330;28;20383;-74
2023/07/20 04:19:59;;;;;;;22.23;20.23;;;18.70;99.90;;;;;;5014365;28;20030;-76
2023/07/20 04:22:25;;;;;;;26.13;24.35;;;18.80;99.90;;;;;;5013677;28;20511;-76
2023/07/20 04:24:51;;;;;;;21.50;20.05;;;18.80;99.90;;;;;;5014870;28;20459;-75
2023/07/20 04:27:18;;;;;;;18.77;16.67;;;18.60;99.90;;;;;;5013953;28;20041;-75
2023/07/20 04:29:44;;;;;;;17.30;16.05;;;18.50;99.90;;;;;;5014616;28;20038;-75
2023/07/20 04:32:10;;;;;;;17.38;16.08;;;18.60;99.90;;;;;;5013219;28;20052;-75
2023/07/20 04:34:37;;;;;;;16.42;14.98;;;18.70;99.90;;;;;;5014114;28;20030;-75
2023/07/20 04:37:06;;;;;;;15.93;13.93;;;18.70;99.90;;;;;;5013528;28;20046;-75
2023/07/20 04:39:32;;;;;;;15.43;13.70;;;18.70;99.90;;;;;;5014236;28;20030;-75
2023/07/20 04:41:58;;;;;;;13.20;11.93;;;18.70;99.90;;;;;;5013579;28;20044;-76
2023/07/20 04:44:24;;;;;;;11.70;10.68;;;18.60;99.90;;;;;;5014082;28;20030;-76
2023/07/20 04:46:50;;;;;;;12.68;11.20;;;18.60;99.90;;;;;;5013170;28;20061;-75
2023/07/20 04:49:16;;;;;;;13.25;11.93;;;18.60;99.90;;;;;;5013537;28;20046;-75
2023/07/20 04:51:42;;;;;;;15.00;11.52;;;18.50;99.90;;;;;;5013209;28;20042;-75
2023/07/20 04:54:10;;;;;;;11.40;10.50;;;18.50;99.90;;;;;;5013648;28;20518;-75
2023/07/20 04:56:36;;;;;;;16.42;15.23;;;18.50;99.90;;;;;;5013383;28;20030;-75
2023/07/20 04:59:02;;;;;;;12.02;10.90;;;18.50;99.90;;;;;;5012591;28;20415;-75
2023/07/20 05:01:28;;;;;;;11.63;10.52;;;18.50;99.90;;;;;;5012888;28;20030;-75
2023/07/20 05:03:54;;;;;;;19.13;17.58;;;18.40;99.90;;;;;;5013426;28;20030;-75
2023/07/20 05:06:20;;;;;;;9.90;8.93;;;18.40;99.90;;;;;;5013088;28;20038;-74
2023/07/20 05:08:46;;;;;;;9.88;8.98;;;18.50;99.90;;;;;;5013513;28;20029;-75
2023/07/20 05:11:12;;;;;;;11.13;8.60;;;18.50;99.90;;;;;;5012880;28;20036;-75
2023/07/20 05:13:38;;;;;;;10.32;8.40;;;18.60;99.90;;;;;;5013621;28;20050;-75
2023/07/20 05:16:05;;;;;;;13.68;9.18;;;18.60;99.90;;;;;;5012690;28;20029;-75
2023/07/20 05:18:31;;;;;;;9.43;8.52;;;18.60;99.90;;;;;;5013328;28;20033;-75
2023/07/20 05:20:57;;;;;;;11.18;7.72;;;18.50;99.90;;;;;;5012686;28;20034;-75
2023/07/20 05:23:23;;;;;;;11.63;7.15;;;18.60;99.90;;;;;;5013424;28;20033;-75
2023/07/20 05:25:59;;;;;;;9.52;8.73;;;18.60;99.90;;;;;;5012902;28;20383;-75
2023/07/20 05:28:26;;;;;;;11.75;8.52;;;18.60;99.90;;;;;;5013226;28;20382;-74
2023/07/20 05:30:52;;;;;;;10.18;8.85;;;18.60;99.90;;;;;;5012454;28;20504;-75
2023/07/20 05:33:21;;;;;;;11.88;10.68;;;18.50;99.90;;;;;;5013178;28;20042;-75
2023/07/20 05:35:48;;;;;;;10.95;9.85;;;18.60;99.90;;;;;;5011072;28;20067;-76
2023/07/20 05:38:14;;;;;;;15.75;9.43;;;18.60;99.90;;;;;;5011768;28;20085;-75
2023/07/20 05:40:40;;;;;;;12.18;9.52;;;18.70;99.90;;;;;;5012676;28;20034;-76
2023/07/20 05:43:06;;;;;;;12.30;8.88;;;18.60;99.90;;;;;;5011581;28;20037;-76
2023/07/20 05:45:33;;;;;;;9.23;8.30;;;18.60;99.90;;;;;;5012149;28;20045;-75
2023/07/20 05:47:59;;;;;;;10.13;8.32;;;18.60;99.90;;;;;;5012723;28;20033;-75
2023/07/20 05:50:25;;;;;;;9.52;7.97;;;18.60;99.90;;;;;;5011990;28;20054;-75
2023/07/20 05:52:54;;;;;;;10.32;8.27;;;18.60;99.90;;;;;;5012712;28;20049;-75
2023/07/20 05:55:20;;;;;;;11.32;10.20;;;18.50;99.90;;;;;;5011386;28;20440;-75
2023/07/20 05:57:47;;;;;;;14.38;8.30;;;18.50;99.90;;;;;;5012618;28;20052;-76
2023/07/20 06:00:14;;;;;;;12.68;8.68;;;18.40;99.90;;;;;;5012335;28;20034;-74
2023/07/20 06:02:40;;;;;;;12.52;8.77;;;18.50;99.90;;;;;;5011287;28;20463;-75
2023/07/20 06:05:10;;;;;;;11.90;9.10;;;18.60;99.90;;;;;;5012187;28;20054;-76
2023/07/20 06:07:39;;;;;;;15.48;10.43;;;18.70;99.90;;;;;;5012376;28;20044;-75
2023/07/20 06:10:06;;;;;;;11.77;9.82;;;18.80;99.90;;;;;;5012457;28;20061;-76
2023/07/20 06:12:33;;;;;;;14.90;13.70;;;18.70;99.90;;;;;;5012096;28;20042;-75
2023/07/20 06:15:03;;;;;;;16.67;15.00;;;18.80;99.90;;;;;;5012668;28;20037;-75
2023/07/20 06:17:29;;;;;;;22.52;20.55;;;18.80;99.90;;;;;;5011479;28;20038;-75
2023/07/20 06:19:55;;;;;;;19.58;18.05;;;18.80;99.90;;;;;;5012128;28;20034;-76
2023/07/20 06:22:21;;;;;;;21.45;19.92;;;18.60;99.90;;;;;;5012186;28;20037;-76
2023/07/20 06:24:48;;;;;;;22.65;21.02;;;18.80;99.90;;;;;;5012563;28;20034;-76
2023/07/20 06:27:14;;;;;;;13.35;11.10;;;18.90;99.90;;;;;;5012226;28;20497;-76
2023/07/20 06:29:40;;;;;;;15.38;14.13;;;18.90;99.90;;;;;;5012397;28;20037;-75
2023/07/20 06:32:07;;;;;;;15.13;13.68;;;19.10;99.90;;;;;;5028327;28;20053;-76
2023/07/20 06:34:36;;;;;;;12.90;11.75;;;19.40;99.90;;;;;;5030395;28;20048;-76
2023/07/20 06:37:04;;;;;;;12.90;11.80;;;19.40;99.90;;;;;;5031712;28;20041;-76
2023/07/20 06:39:30;;;;;;;12.50;11.43;;;19.50;99.90;;;;;;5031678;28;20038;-76
2023/07/20 06:41:56;;;;;;;14.63;13.27;;;19.40;99.90;;;;;;5031574;28;20048;-76
2023/07/20 06:44:22;;;;;;;15.68;14.10;;;19.60;99.90;;;;;;5031806;28;20034;-75
2023/07/20 06:46:48;;;;;;;22.00;20.48;;;19.70;99.90;;;;;;5031565;28;20371;-75
2023/07/20 06:49:25;;;;;;;19.55;18.00;;;19.80;99.90;;;;;;5031314;28;20045;-75
2023/07/20 06:51:52;;;;;;;19.15;17.63;;;20.00;99.90;;;;;;5031855;28;20056;-76
2023/07/20 06:54:18;;;;;;;18.67;17.33;;;20.10;99.90;;;;;;5031514;28;20041;-75
2023/07/20 06:56:44;;;;;;;12.15;11.05;;;20.20;99.90;;;;;;5031629;28;20033;-76
2023/07/20 06:59:10;;;;;;;9.13;8.13;;;20.10;99.90;;;;;;5031879;28;20033;-76
2023/07/20 07:01:36;;;;;;;13.10;10.70;;;20.30;99.90;;;;;;5031253;28;20104;-75
2023/07/20 07:04:02;;;;;;;16.02;14.55;;;20.50;99.90;;;;;;5031588;28;20386;-76
2023/07/20 07:06:29;;;;;;;17.95;11.93;;;20.70;99.90;;;;;;5031071;28;20041;-75
2023/07/20 07:08:55;;;;;;;11.38;10.38;;;20.80;99.90;;;;;;5031855;28;20037;-75
2023/07/20 07:11:21;;;;;;;11.52;9.57;;;21.00;99.90;;;;;;5031469;28;20414;-76
2023/07/20 07:13:50;;;;;;;13.55;12.55;;;21.10;99.90;;;;;;5031503;28;20042;-76
2023/07/20 07:16:18;;;;;;;12.18;11.18;;;21.10;99.90;;;;;;5030913;28;20037;-75
2023/07/20 07:18:47;;;;;;;16.35;15.13;;;21.20;99.90;;;;;;5035567;28;20390;-75
2023/07/20 07:21:13;;;;;;;20.17;18.77;;;21.40;99.90;;;;;;5035169;28;20398;-75
2023/07/20 07:23:39;;;;;;;23.23;21.63;;;21.50;99.90;;;;;;5035038;28;20038;-75
2023/07/20 07:26:06;;;;;;;25.23;23.65;;;21.70;99.90;;;;;;5035039;28;20042;-75
2023/07/20 07:28:32;;;;;;;26.40;24.60;;;21.80;99.90;;;;;;5035263;28;20471;-76
2023/07/20 07:30:58;;;;;;;30.13;28.45;;;22.00;99.90;;;;;;5033923;28;20041;-75
2023/07/20 07:33:24;;;;;;;27.40;25.63;;;22.10;99.90;;;;;;5035035;28;20038;-75
2023/07/20 07:35:52;;;;;;;32.47;30.48;;;22.00;99.90;;;;;;5034558;28;20034;-76
2023/07/20 07:38:19;;;;;;;31.75;29.85;;;22.00;99.90;;;;;;5035007;28;20029;-75
2023/07/20 07:40:45;;;;;;;33.75;31.27;;;22.30;99.90;;;;;;5034612;28;20013;-75
2023/07/20 07:43:13;;;;;;;30.55;28.73;;;22.40;99.90;;;;;;5034888;28;20041;-75
2023/07/20 07:45:39;;;;;;;33.47;31.38;;;22.40;99.90;;;;;;5033754;28;20038;-75
2023/07/20 07:48:05;;;;;;;31.52;29.50;;;22.50;99.90;;;;;;5034765;28;20025;-75
2023/07/20 07:50:31;;;;;;;34.50;32.20;;;22.60;99.90;;;;;;5034484;28;20042;-75
2023/07/20 07:52:57;;;;;;;38.25;35.83;;;22.60;99.90;;;;;;5034650;28;20474;-76
2023/07/20 07:55:24;;;;;;;39.60;37.20;;;22.80;99.90;;;;;;5034405;28;20033;-75
2023/07/20 07:57:50;;;;;;;36.30;33.95;;;22.90;99.90;;;;;;5034664;28;20025;-75
2023/07/20 08:00:18;;;;;;;36.92;34.55;;;23.00;99.90;;;;;;5033395;28;20494;-75
2023/07/20 08:02:46;;;;;;;31.50;28.80;;;23.20;99.90;;;;;;5034305;28;20057;-75
2023/07/20 08:05:12;;;;;;;39.17;37.08;;;23.20;99.90;;;;;;5032544;28;20049;-75
2023/07/20 08:07:38;;;;;;;31.70;29.90;;;23.20;99.90;;;;;;5034207;28;20040;-75
2023/07/20 08:10:05;;;;;;;33.97;31.88;;;23.20;99.90;;;;;;5034808;28;20045;-76
2023/07/20 08:12:31;;;;;;;30.30;28.60;;;23.40;99.90;;;;;;5033999;28;20045;-75
2023/07/20 08:14:58;;;;;;;27.33;25.77;;;23.50;99.90;;;;;;5033700;28;20048;-75
2023/07/20 08:17:24;;;;;;;30.33;28.63;;;23.70;99.80;;;;;;5033818;28;20037;-75
2023/07/20 08:19:50;;;;;;;11.98;11.18;;;23.80;99.90;;;;;;5034417;28;20033;-75
2023/07/20 08:22:16;;;;;;;11.35;10.55;;;24.00;98.70;;;;;;5033800;28;20037;-77
2023/07/20 08:24:42;;;;;;;12.95;11.95;;;24.20;97.60;;;;;;5034262;28;20038;-76
2023/07/20 08:27:09;;;;;;;13.10;12.25;;;24.20;97.90;;;;;;5034467;28;20037;-76
2023/07/20 08:29:38;;;;;;;12.00;11.00;;;24.30;97.80;;;;;;5033241;28;20030;-74
2023/07/20 08:32:05;;;;;;;13.70;12.50;;;24.50;96.80;;;;;;5031881;28;20056;-76
2023/07/20 08:34:31;;;;;;;16.17;14.85;;;24.50;97.00;;;;;;5016486;28;20032;-75
2023/07/20 08:36:58;;;;;;;13.15;12.07;;;24.30;97.70;;;;;;5032418;28;20029;-75
2023/07/20 08:39:24;;;;;;;12.10;11.10;;;24.40;97.30;;;;;;5033923;28;20029;-75
2023/07/20 08:41:51;;;;;;;12.00;11.02;;;24.40;96.90;;;;;;5033242;28;20502;-76
2023/07/20 08:44:17;;;;;;;12.20;11.10;;;24.60;97.40;;;;;;5033844;28;20049;-75
2023/07/20 08:46:43;;;;;;;11.10;10.30;;;24.90;97.30;;;;;;5031843;28;20033;-75
2023/07/20 08:49:11;;;;;;;11.38;10.48;;;25.20;96.90;;;;;;5033383;28;20029;-76
2023/07/20 08:51:37;;;;;;;11.77;10.70;;;25.40;95.40;;;;;;5032072;28;20053;-75
2023/07/20 08:54:03;;;;;;;12.38;11.35;;;25.60;94.80;;;;;;5032214;28;20394;-75
2023/07/20 08:56:29;;;;;;;11.30;10.60;;;25.40;94.00;;;;;;5033274;28;20025;-76
2023/07/20 08:58:55;;;;;;;12.68;11.73;;;25.40;94.30;;;;;;5033266;28;20044;-74
2023/07/20 09:01:22;;;;;;;12.27;11.38;;;25.50;93.90;;;;;;5031395;28;20033;-75
2023/07/20 09:03:48;;;;;;;13.00;11.70;;;25.40;93.40;;;;;;5033472;28;20022;-75
2023/07/20 09:06:14;;;;;;;12.00;11.02;;;25.40;93.40;;;;;;5032045;28;20038;-74
2023/07/20 09:08:40;;;;;;;12.85;11.75;;;25.50;94.10;;;;;;5033315;28;20052;-75
2023/07/20 09:11:07;;;;;;;14.15;13.13;;;25.80;94.90;;;;;;5032857;28;20025;-77
2023/07/20 09:13:33;;;;;;;13.20;12.07;;;25.80;93.50;;;;;;5032951;28;20041;-74
2023/07/20 09:16:00;;;;;;;13.40;12.38;;;25.90;94.10;;;;;;5032340;28;20037;-76
2023/07/20 09:18:27;;;;;;;13.57;12.57;;;25.90;93.50;;;;;;5033024;28;20471;-75
2023/07/20 09:21:03;;;;;;;14.05;12.85;;;25.80;93.10;;;;;;5031487;28;20046;-74
2023/07/20 09:23:31;;;;;;;12.23;11.00;;;25.60;93.30;;;;;;5032163;28;20041;-75
2023/07/20 09:25:57;;;;;;;12.80;11.98;;;25.30;93.30;;;;;;5032937;28;20037;-76
2023/07/20 09:28:24;;;;;;;13.18;12.07;;;25.40;93.10;;;;;;5032684;28;20471;-75
2023/07/20 09:30:50;;;;;;;12.75;11.75;;;25.70;93.00;;;;;;5032187;28;20048;-75
2023/07/20 09:33:21;;;;;;;14.85;13.77;;;25.90;93.30;;;;;;5032708;28;20483;-75
2023/07/20 09:35:47;;;;;;;13.90;12.80;;;26.10;93.70;;;;;;5030720;28;20049;-75
2023/07/20 09:38:14;;;;;;;17.20;15.80;;;26.30;93.80;;;;;;5032830;28;20025;-75
2023/07/20 09:40:40;;;;;;;18.30;17.08;;;26.60;93.40;;;;;;5030672;28;20033;-76
2023/07/20 09:43:09;;;;;;;20.83;19.63;;;26.80;92.90;;;;;;5032192;28;20033;-75
2023/07/20 09:45:39;;;;;;;22.10;20.50;;;27.00;92.20;;;;;;5032266;28;20026;-75
2023/07/20 09:48:06;;;;;;;21.20;19.77;;;27.20;92.80;;;;;;5031612;28;20502;-76
2023/07/20 09:50:53;;;;;;;30.65;28.95;;;27.50;92.70;;;;;;5030797;28;20033;-76
2023/07/20 09:53:19;;;;;;;34.17;32.28;;;27.70;92.00;;;;;;5031318;28;20033;-76
2023/07/20 09:55:47;;;;;;;28.33;26.58;;;27.90;91.70;;;;;;5031904;28;20037;-74
2023/07/20 09:58:14;;;;;;;50.83;48.05;;;28.10;91.70;;;;;;5032832;28;20037;-74
2023/07/20 10:00:43;;;;;;;33.25;31.40;;;27.90;90.20;;;;;;5031682;28;20029;-76
2023/07/20 10:03:09;;;;;;;37.28;35.17;;;28.00;91.10;;;;;;5032916;28;20046;-75
2023/07/20 10:05:36;;;;;;;54.67;51.78;;;28.00;91.40;;;;;;5031075;28;20403;-75
2023/07/20 10:08:05;;;;;;;46.90;43.88;;;28.20;90.80;;;;;;5032528;28;20041;-75
2023/07/20 10:10:33;;;;;;;56.17;53.05;;;28.30;90.90;;;;;;5030427;28;20053;-76
2023/07/20 10:13:01;;;;;;;49.83;47.03;;;28.40;90.30;;;;;;5032265;28;20038;-76
2023/07/20 10:15:34;;;;;;;40.33;38.22;;;28.40;90.40;;;;;;5030637;28;20040;-76
2023/07/20 10:18:16;;;;;;;63.05;59.80;;;28.30;90.50;;;;;;5032239;28;20505;-76
2023/07/20 10:20:43;;;;;;;54.25;51.35;;;28.40;88.40;;;;;;5032030;28;20036;-76
2023/07/20 10:23:09;;;;;;;66.18;62.95;;;28.30;87.60;;;;;;5031307;28;20502;-76
2023/07/20 10:25:37;;;;;;;63.92;60.63;;;28.30;87.60;;;;;;5013734;28;20045;-76
2023/07/20 10:28:06;;;;;;;54.08;50.97;;;28.30;87.50;;;;;;5032721;28;20038;-75
2023/07/20 10:30:36;;;;;;;36.20;34.15;;;27.80;86.80;;;;;;5031377;28;20037;-75
2023/07/20 10:33:03;;;;;;;32.92;30.75;;;27.20;88.00;;;;;;5032150;28;20041;-75
2023/07/20 10:35:29;;;;;;;42.90;40.58;;;27.40;89.60;;;;;;5030767;28;20029;-76
2023/07/20 10:38:01;;;;;;;37.75;35.63;;;27.70;89.90;;;;;;5031982;28;20037;-76
2023/07/20 10:40:37;;;;;;;50.47;47.83;;;27.80;88.90;;;;;;5031220;28;20028;-75
2023/07/20 10:43:07;;;;;;;37.85;35.55;;;27.80;87.40;;;;;;5032056;28;20025;-76
2023/07/20 10:45:52;;;;;;;46.47;43.85;;;27.70;89.10;;;;;;5031294;28;20038;-74
2023/07/20 10:48:20;;;;;;;32.42;30.27;;;28.00;89.40;;;;;;5031917;28;20356;-75
2023/07/20 10:51:06;;;;;;;51.95;49.10;;;28.20;89.10;;;;;;5031947;28;20053;-76
2023/07/20 10:53:33;;;;;;;56.40;53.45;;;28.30;87.70;;;;;;5034123;28;20376;-75
2023/07/20 10:56:13;;;;;;;45.38;42.95;;;28.30;88.00;;;;;;5035123;28;20033;-76
2023/07/20 10:58:40;;;;;;;57.42;54.22;;;28.30;87.60;;;;;;5036283;28;20390;-76
2023/07/20 11:01:06;;;;;;;65.03;61.75;;;28.50;88.10;;;;;;5034896;28;20379;-76
2023/07/20 11:03:34;;;;;;;61.80;58.63;;;28.70;86.30;;;;;;5035895;28;20038;-75
2023/07/20 11:06:20;;;;;;;70.35;66.47;;;28.80;87.10;;;;;;5035435;28;20029;-75
2023/07/20 11:08:46;;;;;;;61.63;58.45;;;28.90;86.10;;;;;;5034614;28;20391;-76
2023/07/20 11:11:25;;;;;;;61.20;57.40;;;28.50;85.70;;;;;;5035437;28;20044;-76
2023/07/20 11:14:10;;;;;;;49.30;46.75;;;28.60;86.70;;;;;;5035793;28;20045;-76
2023/07/20 11:16:36;;;;;;;65.90;62.53;;;28.80;87.80;;;;;;5033638;28;20042;-75
2023/07/20 11:19:03;;;;;;;73.03;69.43;;;28.90;86.50;;;;;;5035440;28;20478;-75
2023/07/20 11:21:37;;;;;;;71.03;67.40;;;29.20;86.00;;;;;;5035102;28;20029;-75
2023/07/20 11:24:04;;;;;;;66.20;62.83;;;29.00;85.00;;;;;;5034655;28;20387;-76
2023/07/20 11:26:39;;;;;;;50.45;47.85;;;28.50;84.60;;;;;;5034805;28;20037;-75
2023/07/20 11:29:05;;;;;;;57.97;54.95;;;28.30;85.80;;;;;;5035304;28;20021;-75
2023/07/20 11:31:34;;;;;;;53.45;50.55;;;28.40;86.00;;;;;;5033286;28;20045;-76
2023/07/20 11:34:00;;;;;;;54.67;51.78;;;28.30;85.80;;;;;;5035009;28;20475;-76
2023/07/20 11:36:26;;;;;;;41.05;38.85;;;28.20;84.90;;;;;;5034312;28;20052;-75
2023/07/20 11:38:53;;;;;;;46.78;44.28;;;28.00;85.10;;;;;;5034752;28;20033;-75
2023/07/20 11:41:20;;;;;;;41.17;38.30;;;27.70;85.00;;;;;;5034672;28;20037;-76
2023/07/20 11:43:47;;;;;;;45.63;43.13;;;27.90;87.20;;;;;;5033424;28;20041;-75
2023/07/20 11:46:13;;;;;;;57.67;54.20;;;28.30;86.80;;;;;;5034263;28;20045;-76
2023/07/20 11:48:39;;;;;;;62.78;59.53;;;28.70;87.00;;;;;;5034713;28;20030;-75
2023/07/20 11:51:06;;;;;;;67.43;63.88;;;29.00;85.40;;;;;;5034396;28;20049;-76
2023/07/20 11:53:33;;;;;;;77.18;73.25;;;29.20;84.30;;;;;;5034424;28;20045;-75
2023/07/20 11:55:59;;;;;;;61.25;57.63;;;29.20;82.50;;;;;;5034403;28;20037;-76
2023/07/20 11:58:27;;;;;;;57.97;54.97;;;28.40;83.80;;;;;;5033314;28;20064;-74
2023/07/20 12:00:53;;;;;;;55.92;52.90;;;28.20;83.90;;;;;;5032785;28;20037;-76
2023/07/20 12:03:19;;;;;;;39.58;37.17;;;28.30;84.50;;;;;;5032399;28;20036;-76
2023/07/20 12:05:45;;;;;;;35.80;33.72;;;28.50;85.80;;;;;;5033067;28;20046;-75
2023/07/20 12:08:11;;;;;;;67.50;63.65;;;28.80;86.40;;;;;;5034124;28;20021;-76
2023/07/20 12:10:43;;;;;;;61.45;57.97;;;28.90;84.20;;;;;;5034161;28;20462;-76
2023/07/20 12:13:09;;;;;;;58.17;55.08;;;28.90;84.20;;;;;;5034245;28;20037;-77
2023/07/20 12:15:36;;;;;;;58.95;55.80;;;28.90;84.90;;;;;;5033773;28;20030;-75
2023/07/20 12:18:03;;;;;;;58.47;55.47;;;28.80;83.30;;;;;;5034136;28;20049;-75
2023/07/20 12:20:31;;;;;;;30.02;28.33;;;28.80;83.60;;;;;;5034243;28;20044;-76
2023/07/20 12:23:11;;;;;;;35.75;33.55;;;28.60;86.10;;;;;;5034028;28;20459;-76
2023/07/20 12:25:41;;;;;;;38.55;36.30;;;28.60;85.10;;;;;;5034111;28;20379;-75
2023/07/20 12:28:08;;;;;;;31.23;29.30;;;28.50;84.40;;;;;;5034492;28;20367;-75
2023/07/20 12:30:35;;;;;;;34.00;31.83;;;28.10;85.50;;;;;;5033586;28;20037;-75